createdAt,value
2019-05-10T00:00:03.769Z,60.78
2019-05-10T00:02:30.373Z,60.72
2019-05-10T00:04:56.946Z,60.79
2019-05-10T00:07:23.548Z,60.80
2019-05-10T00:09:50.113Z,60.88
2019-05-10T00:12:16.711Z,60.99
2019-05-10T00:14:43.280Z,60.89
2019-05-10T00:17:09.885Z,61.02
2019-05-10T00:19:36.474Z,60.96
2019-05-10T00:22:03.086Z,60.84
2019-05-10T00:24:29.665Z,60.92
2019-05-10T00:26:56.268Z,60.93
2019-05-10T00:29:22.845Z,60.91
2019-05-10T00:31:49.434Z,60.95
2019-05-10T00:34:16.011Z,60.91
2019-05-10T00:36:42.620Z,61.02
2019-05-10T00:39:09.198Z,60.87
2019-05-10T00:41:35.793Z,61.02
2019-05-10T00:44:02.365Z,61.43
2019-05-10T00:46:28.959Z,61.57
2019-05-10T00:48:55.543Z,61.58
2019-05-10T00:51:22.158Z,61.71
2019-05-10T00:53:48.740Z,61.55
2019-05-10T00:56:15.340Z,61.61
2019-05-10T00:58:41.916Z,61.75
2019-05-10T01:01:08.546Z,61.73
2019-05-10T01:03:35.112Z,61.84
2019-05-10T01:06:01.743Z,61.94
2019-05-10T01:08:28.371Z,62.07
2019-05-10T01:10:54.956Z,62.05
2019-05-10T01:13:21.562Z,61.78
2019-05-10T01:15:48.179Z,61.70
2019-05-10T01:18:14.773Z,61.66
2019-05-10T01:20:41.342Z,61.81
2019-05-10T01:23:07.961Z,61.90
2019-05-10T01:25:35.912Z,61.86
2019-05-10T01:28:02.756Z,61.70
2019-05-10T01:30:29.385Z,61.91
2019-05-10T01:32:55.982Z,62.05
2019-05-10T01:35:22.623Z,62.11
2019-05-10T01:37:49.239Z,62.09
2019-05-10T01:40:15.816Z,61.86
2019-05-10T01:42:42.433Z,62.20
2019-05-10T01:45:09.018Z,62.29
2019-05-10T01:47:35.618Z,62.18
2019-05-10T01:50:02.193Z,62.15
2019-05-10T01:52:28.806Z,62.24
2019-05-10T01:54:55.376Z,62.18
2019-05-10T01:57:21.978Z,62.20
2019-05-10T01:59:48.591Z,62.11
2019-05-10T02:02:15.205Z,62.18
2019-05-10T02:04:41.804Z,62.22
2019-05-10T02:07:08.415Z,62.24
2019-05-10T02:09:34.984Z,62.17
2019-05-10T02:12:01.596Z,62.09
2019-05-10T02:14:28.163Z,62.01
2019-05-10T02:16:54.783Z,62.02
2019-05-10T02:19:21.359Z,61.96
2019-05-10T02:21:47.992Z,61.88
2019-05-10T02:24:14.547Z,61.82
2019-05-10T02:26:41.154Z,61.83
2019-05-10T02:29:07.764Z,61.80
2019-05-10T02:31:34.411Z,61.77
2019-05-10T02:34:00.970Z,61.77
2019-05-10T02:36:27.589Z,61.76
2019-05-10T02:38:54.191Z,61.71
2019-05-10T02:41:20.816Z,61.69
2019-05-10T02:43:47.433Z,61.58
2019-05-10T02:46:13.996Z,61.46
2019-05-10T02:48:40.585Z,61.44
2019-05-10T02:51:07.156Z,61.30
2019-05-10T02:53:33.784Z,61.23
2019-05-10T02:56:00.359Z,61.27
2019-05-10T02:58:26.957Z,61.20
2019-05-10T03:00:53.530Z,61.33
2019-05-10T03:03:20.128Z,61.29
2019-05-10T03:05:48.552Z,61.48
2019-05-10T03:08:15.052Z,61.50
2019-05-10T03:10:41.638Z,61.53
2019-05-10T03:13:08.232Z,61.59
2019-05-10T03:15:34.817Z,61.67
2019-05-10T03:18:01.418Z,61.71
2019-05-10T03:20:27.976Z,61.72
2019-05-10T03:22:54.660Z,61.61
2019-05-10T03:25:21.400Z,61.67
2019-05-10T03:27:47.997Z,61.70
2019-05-10T03:30:14.576Z,61.77
2019-05-10T03:32:41.187Z,61.77
2019-05-10T03:35:07.867Z,61.85
2019-05-10T03:37:34.606Z,61.84
2019-05-10T03:40:01.189Z,61.87
2019-05-10T03:42:27.791Z,61.78
2019-05-10T03:44:54.388Z,61.86
2019-05-10T03:47:20.984Z,61.88
2019-05-10T03:49:47.643Z,61.90
2019-05-10T03:52:14.249Z,61.87
2019-05-10T03:54:40.823Z,61.87
2019-05-10T03:57:13.820Z,61.91
2019-05-10T03:59:35.737Z,62.07
2019-05-10T04:02:02.319Z,62.08
2019-05-10T04:04:28.898Z,62.14
2019-05-10T04:06:55.479Z,62.19
2019-05-10T04:09:22.085Z,62.16
2019-05-10T04:11:48.654Z,62.31
2019-05-10T04:14:15.277Z,62.28
2019-05-10T04:16:41.944Z,62.26
2019-05-10T04:19:08.523Z,62.22
2019-05-10T04:21:35.122Z,62.19
2019-05-10T04:24:01.792Z,62.15
2019-05-10T04:26:28.365Z,62.02
2019-05-10T04:28:54.984Z,62.00
2019-05-10T04:31:21.559Z,61.88
2019-05-10T04:33:48.215Z,62.04
2019-05-10T04:36:14.783Z,62.02
2019-05-10T04:38:41.385Z,61.99
2019-05-10T04:41:07.960Z,62.09
2019-05-10T04:43:34.549Z,62.06
2019-05-10T04:46:01.129Z,62.12
2019-05-10T04:48:27.805Z,61.94
2019-05-10T04:50:54.377Z,61.87
2019-05-10T04:53:20.985Z,61.80
2019-05-10T04:55:47.563Z,61.82
2019-05-10T04:58:14.157Z,61.73
2019-05-10T05:00:40.741Z,61.63
2019-05-10T05:03:07.355Z,61.61
2019-05-10T05:05:34.062Z,61.55
2019-05-10T05:08:00.700Z,61.46
2019-05-10T05:10:27.283Z,61.27
2019-05-10T05:12:54.156Z,61.16
2019-05-10T05:15:20.734Z,61.14
2019-05-10T05:17:47.327Z,61.18
2019-05-10T05:20:13.908Z,61.13
2019-05-10T05:22:40.484Z,61.10
2019-05-10T05:25:07.099Z,60.98
2019-05-10T05:27:34.010Z,60.97
2019-05-10T05:30:00.608Z,60.98
2019-05-10T05:32:27.181Z,60.88
2019-05-10T05:34:53.776Z,60.85
2019-05-10T05:37:20.355Z,60.84
2019-05-10T05:39:46.975Z,60.82
2019-05-10T05:42:13.638Z,60.69
2019-05-10T05:44:40.314Z,60.63
2019-05-10T05:47:06.886Z,60.48
2019-05-10T05:49:33.474Z,60.41
2019-05-10T05:52:02.327Z,60.36
2019-05-10T05:54:28.966Z,60.11
2019-05-10T05:56:55.542Z,59.98
2019-05-10T05:59:23.809Z,59.90
2019-05-10T06:01:50.458Z,59.72
2019-05-10T06:04:17.070Z,59.55
2019-05-10T06:06:43.639Z,59.40
2019-05-10T06:09:10.248Z,59.29
2019-05-10T06:11:37.840Z,59.13
2019-05-10T06:14:10.917Z,58.93
2019-05-10T06:16:32.930Z,58.87
2019-05-10T06:18:59.529Z,58.80
2019-05-10T06:21:26.808Z,58.72
2019-05-10T06:23:53.601Z,58.42
2019-05-10T06:26:26.503Z,58.23
2019-05-10T06:28:59.636Z,58.03
2019-05-10T06:31:16.807Z,58.02
2019-05-10T06:33:44.901Z,57.80
2019-05-10T06:36:11.678Z,57.53
2019-05-10T06:38:38.293Z,57.30
2019-05-10T06:41:09.990Z,57.36
2019-05-10T06:43:33.194Z,57.13
2019-05-10T06:45:59.782Z,57.08
2019-05-10T06:48:29.518Z,56.67
2019-05-10T06:50:54.693Z,56.55
2019-05-10T06:53:23.245Z,56.33
2019-05-10T06:55:49.602Z,56.55
2019-05-10T06:58:16.178Z,56.10
2019-05-10T07:00:44.695Z,56.06
2019-05-10T07:03:11.103Z,55.90
2019-05-10T07:05:37.705Z,55.84
2019-05-10T07:08:14.005Z,55.46
2019-05-10T07:10:33.787Z,55.11
2019-05-10T07:13:03.756Z,55.07
2019-05-10T07:15:29.179Z,55.11
2019-05-10T07:17:55.760Z,55.04
2019-05-10T07:20:23.722Z,55.24
2019-05-10T07:22:50.678Z,55.33
2019-05-10T07:25:17.286Z,55.14
2019-05-10T07:27:44.239Z,54.81
2019-05-10T07:30:11.065Z,54.31
2019-05-10T07:32:37.656Z,54.24
2019-05-10T07:35:04.339Z,54.47
2019-05-10T07:37:30.902Z,54.60
2019-05-10T07:39:57.532Z,54.56
2019-05-10T07:42:24.111Z,54.71
2019-05-10T07:44:50.721Z,54.68
2019-05-10T07:47:17.297Z,54.73
2019-05-10T07:49:43.914Z,54.22
2019-05-10T07:52:10.481Z,54.05
2019-05-10T07:54:44.611Z,54.20
2019-05-10T07:57:05.389Z,53.91
2019-05-10T07:59:41.999Z,53.94
2019-05-10T08:02:06.140Z,53.83
2019-05-10T08:04:33.376Z,53.56
2019-05-10T08:06:59.569Z,53.50
2019-05-10T08:09:25.298Z,53.52
2019-05-10T08:11:53.890Z,53.46
2019-05-10T08:14:20.178Z,53.16
2019-05-10T08:16:49.779Z,52.78
2019-05-10T08:19:15.065Z,52.64
2019-05-10T08:21:42.002Z,51.84
2019-05-10T08:24:13.720Z,51.53
2019-05-10T08:26:37.020Z,51.68
2019-05-10T08:29:07.821Z,51.80
2019-05-10T08:31:40.680Z,51.67
2019-05-10T08:34:02.221Z,51.66
2019-05-10T08:36:28.534Z,51.52
2019-05-10T08:39:03.458Z,51.36
2019-05-10T08:41:23.474Z,51.27
2019-05-10T08:43:52.390Z,50.99
2019-05-10T08:46:19.330Z,50.60
2019-05-10T08:48:50.582Z,50.40
2019-05-10T08:51:14.983Z,50.09
2019-05-10T08:53:42.291Z,49.17
2019-05-10T08:56:13.672Z,49.40
2019-05-10T08:58:37.497Z,49.27
2019-05-10T09:01:16.276Z,49.03
2019-05-10T09:03:32.438Z,47.61
2019-05-10T09:06:05.311Z,47.26
2019-05-10T09:08:31.353Z,47.01
2019-05-10T09:10:55.672Z,46.28
2019-05-10T09:13:22.896Z,46.17
2019-05-10T09:15:54.330Z,45.87
2019-05-10T09:18:18.047Z,46.01
2019-05-10T09:20:44.635Z,46.13
2019-05-10T09:23:17.886Z,46.21
2019-05-10T09:25:39.561Z,45.98
2019-05-10T09:28:11.674Z,45.93
2019-05-10T09:30:35.606Z,45.20
2019-05-10T09:33:08.768Z,45.12
2019-05-10T09:35:32.852Z,44.90
2019-05-10T09:37:59.046Z,43.41
2019-05-10T09:40:26.778Z,43.76
2019-05-10T09:42:53.350Z,43.59
2019-05-10T09:45:24.106Z,43.58
2019-05-10T09:47:48.271Z,42.88
2019-05-10T09:50:14.854Z,42.41
2019-05-10T09:52:41.702Z,42.14
2019-05-10T09:55:12.410Z,41.70
2019-05-10T09:57:38.054Z,41.70
2019-05-10T10:00:07.235Z,40.91
2019-05-10T10:02:33.985Z,40.52
2019-05-10T10:05:00.675Z,40.63
2019-05-10T10:07:30.692Z,40.76
2019-05-10T10:09:57.038Z,40.69
2019-05-10T10:12:23.769Z,40.72
2019-05-10T10:14:50.336Z,40.03
2019-05-10T10:17:18.347Z,39.17
2019-05-10T10:19:47.811Z,38.63
2019-05-10T10:22:13.569Z,37.77
2019-05-10T10:24:41.097Z,36.77
2019-05-10T10:27:07.928Z,36.63
2019-05-10T10:29:38.269Z,35.16
2019-05-10T10:32:02.845Z,34.86
2019-05-10T10:34:32.693Z,33.87
2019-05-10T10:36:58.134Z,33.72
2019-05-10T10:39:24.806Z,33.32
2019-05-10T10:41:52.216Z,33.04
2019-05-10T10:44:18.973Z,33.11
2019-05-10T10:46:47.775Z,32.76
2019-05-10T10:49:14.611Z,31.80
2019-05-10T10:51:41.372Z,31.92
2019-05-10T10:54:07.950Z,30.66
2019-05-10T10:56:34.564Z,30.08
2019-05-10T10:59:01.144Z,29.24
2019-05-10T11:01:33.182Z,28.47
2019-05-10T11:03:56.091Z,27.60
2019-05-10T11:06:22.883Z,26.97
2019-05-10T11:08:51.707Z,26.57
2019-05-10T11:11:17.808Z,25.41
2019-05-10T11:13:46.286Z,25.49
2019-05-10T11:16:15.670Z,24.52
2019-05-10T11:18:41.828Z,23.72
2019-05-10T11:21:11.078Z,23.52
2019-05-10T11:23:39.050Z,22.77
2019-05-10T11:26:05.321Z,22.52
2019-05-10T11:28:38.563Z,21.89
2019-05-10T11:31:01.076Z,21.39
2019-05-10T11:33:30.831Z,20.69
2019-05-10T11:35:57.671Z,20.36
2019-05-10T11:38:24.402Z,19.79
2019-05-10T11:40:50.974Z,19.09
2019-05-10T11:43:23.897Z,18.61
2019-05-10T11:45:45.899Z,18.24
2019-05-10T11:48:12.530Z,17.95
2019-05-10T11:50:41.125Z,17.65
2019-05-10T11:53:13.299Z,17.17
2019-05-10T11:59:04.539Z,16.13
2019-05-10T12:00:34.323Z,15.79
2019-05-10T12:03:07.686Z,15.51
2019-05-10T12:05:31.793Z,15.44
2019-05-10T12:07:57.549Z,15.27
2019-05-10T12:10:25.564Z,15.02
2019-05-10T12:13:06.194Z,14.37
2019-05-10T12:15:25.293Z,14.62
2019-05-10T12:17:57.774Z,14.22
2019-05-10T12:20:17.571Z,14.57
2019-05-10T12:22:47.366Z,15.03
2019-05-10T12:25:35.933Z,14.99
2019-05-10T12:25:59.517Z,16.11
2019-05-10T12:27:47.844Z,15.30
2019-05-10T12:30:11.478Z,15.56
2019-05-10T12:32:53.666Z,15.45
2019-05-10T12:35:05.734Z,15.77
2019-05-10T12:37:32.332Z,16.16
2019-05-10T12:40:08.535Z,16.55
2019-05-10T12:42:27.259Z,17.24
2019-05-10T12:44:55.922Z,17.76
2019-05-10T12:47:22.154Z,18.32
2019-05-10T12:49:53.895Z,18.78
2019-05-10T12:52:17.148Z,19.27
2019-05-10T12:54:43.713Z,19.76
2019-05-10T12:57:10.347Z,20.18
2019-05-10T12:59:36.909Z,20.60
2019-05-10T13:02:04.622Z,21.19
2019-05-10T13:04:40.070Z,21.76
2019-05-10T13:07:00.151Z,22.07
2019-05-10T13:09:38.105Z,22.43
2019-05-10T13:12:03.134Z,22.82
2019-05-10T13:14:23.370Z,23.19
2019-05-10T13:16:49.945Z,23.64
2019-05-10T13:19:19.966Z,24.60
2019-05-10T13:21:44.848Z,24.70
2019-05-10T13:24:11.516Z,25.55
2019-05-10T13:26:38.101Z,26.20
2019-05-10T13:29:08.164Z,26.87
2019-05-10T13:31:42.105Z,27.98
2019-05-10T13:34:01.355Z,27.97
2019-05-10T13:36:30.634Z,28.82
2019-05-10T13:38:56.259Z,29.32
2019-05-10T13:41:24.470Z,30.19
2019-05-10T13:43:51.165Z,30.53
2019-05-10T13:46:17.741Z,31.15
2019-05-10T13:48:44.351Z,32.31
2019-05-10T13:51:10.934Z,33.18
2019-05-10T13:53:37.549Z,32.71
2019-05-10T13:56:04.709Z,32.84
2019-05-10T13:58:31.329Z,33.84
2019-05-10T14:00:57.912Z,34.49
2019-05-10T14:03:24.517Z,35.42
2019-05-10T14:05:51.087Z,35.97
2019-05-10T14:08:17.683Z,36.34
2019-05-10T14:10:44.267Z,37.28
2019-05-10T14:13:10.875Z,37.41
2019-05-10T14:15:37.455Z,38.27
2019-05-10T14:18:04.065Z,38.82
2019-05-10T14:20:30.642Z,39.10
2019-05-10T14:22:58.906Z,39.36
2019-05-10T14:25:29.697Z,39.82
2019-05-10T14:27:53.877Z,38.98
2019-05-10T14:30:20.448Z,40.00
2019-05-10T14:32:47.068Z,40.06
2019-05-10T14:35:16.415Z,40.37
2019-05-10T14:37:41.964Z,40.91
2019-05-10T14:40:08.546Z,41.81
2019-05-10T14:42:35.161Z,42.08
2019-05-10T14:45:01.733Z,42.08
2019-05-10T14:47:28.309Z,42.24
2019-05-10T14:49:54.906Z,42.58
2019-05-10T14:52:22.696Z,42.80
2019-05-10T14:54:54.824Z,42.67
2019-05-10T14:57:17.790Z,42.45
2019-05-10T14:59:44.451Z,42.53
2019-05-10T15:02:17.047Z,42.80
2019-05-10T15:04:45.202Z,42.83
2019-05-10T15:07:08.530Z,43.12
2019-05-10T15:09:35.963Z,43.17
2019-05-10T15:12:02.534Z,42.65
2019-05-10T15:14:29.267Z,43.58
2019-05-10T15:16:55.852Z,43.49
2019-05-10T15:19:27.134Z,44.11
2019-05-10T15:21:51.786Z,43.94
2019-05-10T15:24:18.390Z,44.75
2019-05-10T15:26:46.140Z,45.26
2019-05-10T15:29:15.066Z,45.94
2019-05-10T15:31:41.264Z,46.47
2019-05-10T15:34:07.852Z,46.49
2019-05-10T15:36:34.433Z,46.88
2019-05-10T15:39:01.038Z,47.16
2019-05-10T15:41:27.605Z,47.64
2019-05-10T15:43:55.001Z,47.87
2019-05-10T15:46:23.386Z,48.28
2019-05-10T15:48:50.181Z,49.08
2019-05-10T15:51:18.435Z,49.55
2019-05-10T15:53:45.238Z,49.72
2019-05-10T15:56:11.817Z,50.03
2019-05-10T15:58:42.122Z,50.33
2019-05-10T16:01:06.718Z,50.63
2019-05-10T16:03:33.327Z,51.20
2019-05-10T16:06:01.116Z,50.61
2019-05-10T16:08:30.106Z,50.76
2019-05-10T16:10:56.272Z,50.54
2019-05-10T16:13:25.092Z,50.15
2019-05-10T16:15:56.908Z,49.88
2019-05-10T16:18:20.590Z,49.65
2019-05-10T16:20:48.045Z,48.60
2019-05-10T16:23:14.646Z,48.53
2019-05-10T16:25:47.641Z,48.69
2019-05-10T16:28:09.527Z,49.98
2019-05-10T16:30:36.662Z,50.84
2019-05-10T16:33:03.396Z,50.77
2019-05-10T16:35:38.333Z,51.16
2019-05-10T16:37:58.295Z,51.33
2019-05-10T16:40:24.926Z,51.66
2019-05-10T16:42:51.514Z,52.16
2019-05-10T16:45:18.108Z,52.24
2019-05-10T16:47:44.688Z,52.31
2019-05-10T16:50:11.305Z,52.11
2019-05-10T16:52:37.899Z,52.16
2019-05-10T16:55:05.418Z,52.93
2019-05-10T16:57:37.297Z,52.87
2019-05-10T17:00:02.186Z,53.40
2019-05-10T17:02:28.930Z,53.03
2019-05-10T17:04:55.550Z,52.60
2019-05-10T17:07:22.122Z,53.31
2019-05-10T17:09:49.584Z,53.06
2019-05-10T17:12:17.034Z,52.97
2019-05-10T17:14:43.648Z,52.85
2019-05-10T17:17:10.223Z,53.16
2019-05-10T17:19:36.840Z,53.58
2019-05-10T17:22:03.424Z,53.72
2019-05-10T17:24:30.027Z,53.96
2019-05-10T17:26:56.609Z,53.92
2019-05-10T17:29:23.239Z,53.95
2019-05-10T17:31:49.821Z,53.80
2019-05-10T17:34:27.637Z,54.08
2019-05-10T17:36:44.721Z,53.88
2019-05-10T17:39:11.337Z,53.87
2019-05-10T17:41:37.915Z,54.00
2019-05-10T17:44:04.540Z,54.21
2019-05-10T17:46:31.115Z,55.31
2019-05-10T17:48:57.698Z,55.43
2019-05-10T17:51:24.308Z,54.52
2019-05-10T17:53:54.935Z,55.46
2019-05-10T17:56:19.546Z,55.36
2019-05-10T17:58:46.115Z,55.42
2019-05-10T18:01:12.722Z,55.56
2019-05-10T18:03:39.302Z,55.11
2019-05-10T18:06:05.923Z,55.97
2019-05-10T18:08:32.494Z,56.17
2019-05-10T18:11:04.107Z,56.48
2019-05-10T18:13:27.506Z,56.87
2019-05-10T18:15:54.118Z,56.70
2019-05-10T18:18:20.688Z,57.14
2019-05-10T18:20:47.305Z,56.87
2019-05-10T18:23:20.471Z,56.50
2019-05-10T18:25:42.262Z,57.09
2019-05-10T18:28:08.842Z,57.17
2019-05-10T18:30:35.449Z,57.21
2019-05-10T18:33:06.658Z,57.05
2019-05-10T18:35:30.356Z,57.57
2019-05-10T18:37:59.485Z,57.17
2019-05-10T18:40:31.779Z,57.80
2019-05-10T18:42:57.970Z,57.55
2019-05-10T18:45:23.259Z,57.34
2019-05-10T18:47:50.200Z,56.93
2019-05-10T18:50:16.795Z,56.75
2019-05-10T18:52:43.378Z,56.97
2019-05-10T18:55:10.048Z,56.97
2019-05-10T18:57:36.620Z,57.33
2019-05-10T19:00:03.537Z,57.07
2019-05-10T19:02:30.341Z,56.42
2019-05-10T19:04:56.945Z,56.86
2019-05-10T19:07:23.575Z,56.85
2019-05-10T19:09:50.169Z,56.66
2019-05-10T19:12:18.573Z,57.49
2019-05-10T19:14:45.092Z,57.55
2019-05-10T19:17:11.690Z,57.45
2019-05-10T19:19:42.026Z,58.06
2019-05-10T19:22:08.825Z,57.28
2019-05-10T19:24:34.915Z,57.44
2019-05-10T19:27:07.085Z,58.06
2019-05-10T19:29:29.842Z,58.04
2019-05-10T19:31:56.451Z,58.15
2019-05-10T19:34:23.021Z,58.64
2019-05-10T19:36:49.777Z,58.66
2019-05-10T19:39:16.362Z,58.02
2019-05-10T19:41:42.977Z,58.55
2019-05-10T19:44:09.596Z,58.85
2019-05-10T19:46:39.171Z,58.48
2019-05-10T19:49:07.502Z,58.90
2019-05-10T19:51:33.122Z,58.55
2019-05-10T19:53:59.693Z,59.33
2019-05-10T19:56:30.114Z,58.83
2019-05-10T19:58:54.585Z,59.77
2019-05-10T20:01:21.198Z,59.43
2019-05-10T20:03:47.771Z,60.24
2019-05-10T20:06:14.412Z,60.41
2019-05-10T20:08:40.987Z,59.83
2019-05-10T20:11:07.597Z,60.25
2019-05-10T20:13:34.183Z,60.30
2019-05-10T20:16:01.551Z,60.82
2019-05-10T20:18:28.353Z,60.38
2019-05-10T20:20:54.977Z,60.48
2019-05-10T20:23:21.549Z,60.80
2019-05-10T20:25:48.166Z,60.51
2019-05-10T20:28:14.751Z,60.99
2019-05-10T20:30:41.441Z,60.70
2019-05-10T20:33:08.079Z,61.20
2019-05-10T20:35:34.722Z,61.19
2019-05-10T20:38:02.655Z,61.28
2019-05-10T20:40:29.531Z,61.01
2019-05-10T20:42:56.112Z,60.99
2019-05-10T20:45:22.790Z,60.80
2019-05-10T20:47:49.379Z,60.78
2019-05-10T20:50:16.063Z,60.95
2019-05-10T20:52:42.658Z,60.82
2019-05-10T20:55:09.242Z,60.75
2019-05-10T20:57:35.859Z,61.25
2019-05-10T21:00:02.445Z,61.17
2019-05-10T21:02:29.167Z,61.22
2019-05-10T21:04:57.361Z,61.19
2019-05-10T21:07:23.961Z,60.93
2019-05-10T21:09:50.539Z,61.01
2019-05-10T21:12:17.133Z,60.85
2019-05-10T21:14:43.717Z,60.45
2019-05-10T21:17:10.327Z,60.71
2019-05-10T21:19:36.915Z,60.77
2019-05-10T21:22:03.530Z,60.79
2019-05-10T21:24:32.204Z,60.83
2019-05-10T21:26:58.852Z,60.85
2019-05-10T21:29:25.437Z,60.81
2019-05-10T21:31:52.057Z,60.97
2019-05-10T21:34:18.653Z,60.96
2019-05-10T21:36:45.237Z,61.13
2019-05-10T21:39:11.816Z,61.19
2019-05-10T21:41:38.435Z,61.05
2019-05-10T21:44:05.011Z,61.12
2019-05-10T21:46:31.619Z,61.09
2019-05-10T21:48:58.200Z,60.86
2019-05-10T21:51:24.802Z,60.94
2019-05-10T21:53:51.389Z,61.01
2019-05-10T21:56:18.015Z,61.04
2019-05-10T21:58:44.587Z,60.97
2019-05-10T22:01:11.196Z,61.05
2019-05-10T22:03:37.769Z,60.88
2019-05-10T22:06:04.363Z,60.90
2019-05-10T22:08:30.935Z,60.96
2019-05-10T22:10:57.600Z,61.02
2019-05-10T22:13:24.294Z,61.00
2019-05-10T22:15:50.906Z,61.03
2019-05-10T22:18:17.515Z,60.91
2019-05-10T22:20:44.138Z,60.76
2019-05-10T22:23:10.770Z,60.68
2019-05-10T22:25:37.348Z,60.38
2019-05-10T22:28:03.959Z,60.26
2019-05-10T22:30:30.550Z,60.10
2019-05-10T22:32:57.167Z,60.11
2019-05-10T22:35:23.739Z,60.01
2019-05-10T22:37:50.349Z,59.92
2019-05-10T22:40:16.946Z,60.01
2019-05-10T22:42:43.663Z,59.82
2019-05-10T22:45:10.371Z,60.01
2019-05-10T22:47:36.977Z,59.89
2019-05-10T22:50:03.544Z,60.14
2019-05-10T22:52:30.197Z,60.04
2019-05-10T22:55:00.145Z,60.24
2019-05-10T22:57:25.138Z,60.26
2019-05-10T22:59:51.707Z,60.15
2019-05-10T23:02:18.313Z,60.26
2019-05-10T23:04:44.899Z,60.30
2019-05-10T23:07:11.506Z,60.49
2019-05-10T23:09:38.091Z,60.51
2019-05-10T23:12:04.694Z,60.49
2019-05-10T23:14:31.275Z,60.58
2019-05-10T23:16:57.892Z,60.60
2019-05-10T23:19:24.463Z,60.31
2019-05-10T23:21:51.079Z,60.58
2019-05-10T23:24:17.654Z,60.73
2019-05-10T23:26:44.263Z,60.65
2019-05-10T23:29:10.857Z,60.73
2019-05-10T23:31:37.467Z,60.90
2019-05-10T23:34:04.051Z,60.91
2019-05-10T23:36:30.664Z,60.79
2019-05-10T23:38:57.252Z,60.86
2019-05-10T23:41:23.869Z,60.76
2019-05-10T23:43:50.449Z,61.17
2019-05-10T23:46:17.027Z,61.21
2019-05-10T23:48:43.643Z,61.51
2019-05-10T23:51:10.216Z,61.61
2019-05-10T23:53:36.829Z,61.16
2019-05-10T23:56:03.419Z,61.54
2019-05-10T23:58:30.002Z,61.49
